sensor_id;sensor_type;location;lat;lon;timestamp;P1;durP1;ratioP1;P2;durP2;ratioP2
12756;SDS011;31601;48.042;12.240;2023-06-22T00:02:00;6.32;;;4.15;;
12756;SDS011;31601;48.042;12.240;2023-06-22T00:04:26;8.70;;;4.50;;
12756;SDS011;31601;48.042;12.240;2023-06-22T00:06:53;7.65;;;4.35;;
12756;SDS011;31601;48.042;12.240;2023-06-22T00:09:19;9.23;;;4.13;;
12756;SDS011;31601;48.042;12.240;2023-06-22T00:11:45;8.90;;;4.20;;
12756;SDS011;31601;48.042;12.240;2023-06-22T00:14:13;7.75;;;4.28;;
12756;SDS011;31601;48.042;12.240;2023-06-22T00:16:40;9.98;;;4.45;;
12756;SDS011;31601;48.042;12.240;2023-06-22T00:19:08;9.73;;;4.38;;
12756;SDS011;31601;48.042;12.240;2023-06-22T00:21:36;7.68;;;4.15;;
12756;SDS011;31601;48.042;12.240;2023-06-22T00:24:03;10.43;;;4.85;;
12756;SDS011;31601;48.042;12.240;2023-06-22T00:26:31;11.23;;;5.47;;
12756;SDS011;31601;48.042;12.240;2023-06-22T00:28:57;9.82;;;5.13;;
12756;SDS011;31601;48.042;12.240;2023-06-22T00:31:25;8.98;;;5.60;;
12756;SDS011;31601;48.042;12.240;2023-06-22T00:33:51;11.70;;;6.43;;
12756;SDS011;31601;48.042;12.240;2023-06-22T00:36:18;12.10;;;6.32;;
12756;SDS011;31601;48.042;12.240;2023-06-22T00:38:44;12.38;;;6.28;;
12756;SDS011;31601;48.042;12.240;2023-06-22T00:41:10;12.07;;;6.30;;
12756;SDS011;31601;48.042;12.240;2023-06-22T00:43:37;12.20;;;6.85;;
12756;SDS011;31601;48.042;12.240;2023-06-22T00:46:03;13.90;;;7.00;;
12756;SDS011;31601;48.042;12.240;2023-06-22T00:48:31;14.45;;;7.38;;
12756;SDS011;31601;48.042;12.240;2023-06-22T00:50:58;13.10;;;7.25;;
12756;SDS011;31601;48.042;12.240;2023-06-22T00:53:25;14.75;;;7.25;;
12756;SDS011;31601;48.042;12.240;2023-06-22T00:55:51;11.80;;;7.03;;
12756;SDS011;31601;48.042;12.240;2023-06-22T00:58:18;15.63;;;7.60;;
12756;SDS011;31601;48.042;12.240;2023-06-22T01:00:47;15.85;;;7.13;;
12756;SDS011;31601;48.042;12.240;2023-06-22T01:03:13;13.18;;;6.85;;
12756;SDS011;31601;48.042;12.240;2023-06-22T01:05:43;13.68;;;7.35;;
12756;SDS011;31601;48.042;12.240;2023-06-22T01:08:14;12.10;;;6.97;;
12756;SDS011;31601;48.042;12.240;2023-06-22T01:10:50;14.50;;;7.20;;
12756;SDS011;31601;48.042;12.240;2023-06-22T01:13:22;15.57;;;7.28;;
12756;SDS011;31601;48.042;12.240;2023-06-22T01:15:55;11.23;;;6.10;;
12756;SDS011;31601;48.042;12.240;2023-06-22T01:18:26;12.05;;;6.45;;
12756;SDS011;31601;48.042;12.240;2023-06-22T01:20:57;14.10;;;7.13;;
12756;SDS011;31601;48.042;12.240;2023-06-22T01:23:26;12.27;;;7.90;;
12756;SDS011;31601;48.042;12.240;2023-06-22T01:26:02;11.25;;;6.55;;
12756;SDS011;31601;48.042;12.240;2023-06-22T01:28:39;13.63;;;7.53;;
12756;SDS011;31601;48.042;12.240;2023-06-22T01:31:11;11.60;;;6.75;;
12756;SDS011;31601;48.042;12.240;2023-06-22T01:33:41;15.25;;;7.53;;
12756;SDS011;31601;48.042;12.240;2023-06-22T01:36:08;11.35;;;7.13;;
12756;SDS011;31601;48.042;12.240;2023-06-22T01:38:36;15.18;;;7.57;;
12756;SDS011;31601;48.042;12.240;2023-06-22T01:41:04;11.35;;;7.53;;
12756;SDS011;31601;48.042;12.240;2023-06-22T01:43:30;12.02;;;7.82;;
12756;SDS011;31601;48.042;12.240;2023-06-22T01:46:00;12.13;;;7.57;;
12756;SDS011;31601;48.042;12.240;2023-06-22T01:48:27;13.35;;;7.80;;
12756;SDS011;31601;48.042;12.240;2023-06-22T01:50:54;10.18;;;6.97;;
12756;SDS011;31601;48.042;12.240;2023-06-22T01:53:21;15.32;;;7.47;;
12756;SDS011;31601;48.042;12.240;2023-06-22T01:55:47;10.90;;;6.95;;
12756;SDS011;31601;48.042;12.240;2023-06-22T01:58:14;9.68;;;6.50;;
12756;SDS011;31601;48.042;12.240;2023-06-22T02:00:44;13.85;;;7.22;;
12756;SDS011;31601;48.042;12.240;2023-06-22T02:03:17;14.07;;;7.55;;
12756;SDS011;31601;48.042;12.240;2023-06-22T02:05:49;13.05;;;8.40;;
12756;SDS011;31601;48.042;12.240;2023-06-22T02:08:19;14.02;;;8.20;;
12756;SDS011;31601;48.042;12.240;2023-06-22T02:10:48;11.85;;;8.55;;
12756;SDS011;31601;48.042;12.240;2023-06-22T02:13:15;15.35;;;8.30;;
12756;SDS011;31601;48.042;12.240;2023-06-22T02:15:42;15.45;;;9.00;;
12756;SDS011;31601;48.042;12.240;2023-06-22T02:18:09;14.07;;;8.55;;
12756;SDS011;31601;48.042;12.240;2023-06-22T02:20:37;16.98;;;7.93;;
12756;SDS011;31601;48.042;12.240;2023-06-22T02:23:04;18.13;;;8.77;;
12756;SDS011;31601;48.042;12.240;2023-06-22T02:25:31;15.23;;;8.98;;
12756;SDS011;31601;48.042;12.240;2023-06-22T02:27:57;16.65;;;8.80;;
12756;SDS011;31601;48.042;12.240;2023-06-22T02:30:24;13.90;;;8.60;;
12756;SDS011;31601;48.042;12.240;2023-06-22T02:32:50;14.95;;;8.65;;
12756;SDS011;31601;48.042;12.240;2023-06-22T02:35:23;14.15;;;8.77;;
12756;SDS011;31601;48.042;12.240;2023-06-22T02:37:51;13.02;;;8.55;;
12756;SDS011;31601;48.042;12.240;2023-06-22T02:40:17;13.75;;;9.10;;
12756;SDS011;31601;48.042;12.240;2023-06-22T02:42:44;14.00;;;8.73;;
12756;SDS011;31601;48.042;12.240;2023-06-22T02:45:10;16.58;;;8.60;;
12756;SDS011;31601;48.042;12.240;2023-06-22T02:47:37;14.82;;;9.02;;
12756;SDS011;31601;48.042;12.240;2023-06-22T02:50:03;13.50;;;8.85;;
12756;SDS011;31601;48.042;12.240;2023-06-22T02:52:30;11.82;;;8.45;;
12756;SDS011;31601;48.042;12.240;2023-06-22T02:54:58;11.60;;;9.10;;
12756;SDS011;31601;48.042;12.240;2023-06-22T02:57:24;14.27;;;9.30;;
12756;SDS011;31601;48.042;12.240;2023-06-22T02:59:51;20.20;;;9.02;;
12756;SDS011;31601;48.042;12.240;2023-06-22T03:02:17;17.92;;;8.50;;
12756;SDS011;31601;48.042;12.240;2023-06-22T03:04:46;15.18;;;8.85;;
12756;SDS011;31601;48.042;12.240;2023-06-22T03:07:14;14.75;;;9.30;;
12756;SDS011;31601;48.042;12.240;2023-06-22T03:09:40;16.17;;;8.55;;
12756;SDS011;31601;48.042;12.240;2023-06-22T03:12:09;14.80;;;9.02;;
12756;SDS011;31601;48.042;12.240;2023-06-22T03:14:36;14.07;;;8.43;;
12756;SDS011;31601;48.042;12.240;2023-06-22T03:17:03;15.30;;;8.77;;
12756;SDS011;31601;48.042;12.240;2023-06-22T03:19:30;14.50;;;9.02;;
12756;SDS011;31601;48.042;12.240;2023-06-22T03:21:57;14.07;;;8.90;;
12756;SDS011;31601;48.042;12.240;2023-06-22T03:24:23;13.88;;;8.35;;
12756;SDS011;31601;48.042;12.240;2023-06-22T03:26:49;13.35;;;8.10;;
12756;SDS011;31601;48.042;12.240;2023-06-22T03:29:17;13.27;;;8.65;;
12756;SDS011;31601;48.042;12.240;2023-06-22T03:31:44;15.35;;;8.20;;
12756;SDS011;31601;48.042;12.240;2023-06-22T03:34:10;10.98;;;8.57;;
12756;SDS011;31601;48.042;12.240;2023-06-22T03:36:36;12.13;;;8.07;;
12756;SDS011;31601;48.042;12.240;2023-06-22T03:39:03;13.73;;;7.82;;
12756;SDS011;31601;48.042;12.240;2023-06-22T03:41:29;14.75;;;8.02;;
12756;SDS011;31601;48.042;12.240;2023-06-22T03:43:56;11.70;;;7.53;;
12756;SDS011;31601;48.042;12.240;2023-06-22T03:46:23;11.73;;;7.45;;
12756;SDS011;31601;48.042;12.240;2023-06-22T03:48:50;14.35;;;7.53;;
12756;SDS011;31601;48.042;12.240;2023-06-22T03:51:16;14.75;;;7.78;;
12756;SDS011;31601;48.042;12.240;2023-06-22T03:53:42;13.43;;;6.75;;
12756;SDS011;31601;48.042;12.240;2023-06-22T03:56:09;11.10;;;7.18;;
12756;SDS011;31601;48.042;12.240;2023-06-22T03:58:36;11.45;;;6.53;;
12756;SDS011;31601;48.042;12.240;2023-06-22T04:01:07;13.07;;;6.97;;
12756;SDS011;31601;48.042;12.240;2023-06-22T04:03:37;9.43;;;5.97;;
12756;SDS011;31601;48.042;12.240;2023-06-22T04:06:04;12.30;;;6.57;;
12756;SDS011;31601;48.042;12.240;2023-06-22T04:08:30;7.63;;;5.22;;
12756;SDS011;31601;48.042;12.240;2023-06-22T04:10:57;10.55;;;5.38;;
12756;SDS011;31601;48.042;12.240;2023-06-22T04:13:23;8.57;;;5.68;;
12756;SDS011;31601;48.042;12.240;2023-06-22T04:15:49;10.65;;;5.78;;
12756;SDS011;31601;48.042;12.240;2023-06-22T04:18:16;12.68;;;5.78;;
12756;SDS011;31601;48.042;12.240;2023-06-22T04:20:44;10.20;;;5.07;;
12756;SDS011;31601;48.042;12.240;2023-06-22T04:23:11;8.27;;;5.25;;
12756;SDS011;31601;48.042;12.240;2023-06-22T04:25:38;18.85;;;5.95;;
12756;SDS011;31601;48.042;12.240;2023-06-22T04:28:05;10.75;;;5.80;;
12756;SDS011;31601;48.042;12.240;2023-06-22T04:30:37;12.30;;;5.88;;
12756;SDS011;31601;48.042;12.240;2023-06-22T04:33:11;8.98;;;5.57;;
12756;SDS011;31601;48.042;12.240;2023-06-22T04:35:37;10.82;;;5.43;;
12756;SDS011;31601;48.042;12.240;2023-06-22T04:38:07;9.35;;;5.07;;
12756;SDS011;31601;48.042;12.240;2023-06-22T04:40:34;10.55;;;5.35;;
12756;SDS011;31601;48.042;12.240;2023-06-22T04:43:00;7.78;;;4.53;;
12756;SDS011;31601;48.042;12.240;2023-06-22T04:45:28;10.00;;;5.35;;
12756;SDS011;31601;48.042;12.240;2023-06-22T04:47:55;8.52;;;4.90;;
12756;SDS011;31601;48.042;12.240;2023-06-22T04:50:21;10.82;;;5.38;;
12756;SDS011;31601;48.042;12.240;2023-06-22T04:52:48;10.85;;;5.22;;
12756;SDS011;31601;48.042;12.240;2023-06-22T04:55:16;9.07;;;4.88;;
12756;SDS011;31601;48.042;12.240;2023-06-22T04:57:44;12.63;;;5.28;;
12756;SDS011;31601;48.042;12.240;2023-06-22T05:00:14;10.73;;;5.18;;
12756;SDS011;31601;48.042;12.240;2023-06-22T05:02:42;10.10;;;4.88;;
12756;SDS011;31601;48.042;12.240;2023-06-22T05:05:10;9.48;;;5.03;;
12756;SDS011;31601;48.042;12.240;2023-06-22T05:07:38;11.93;;;5.68;;
12756;SDS011;31601;48.042;12.240;2023-06-22T05:10:07;15.30;;;5.35;;
12756;SDS011;31601;48.042;12.240;2023-06-22T05:12:36;11.45;;;5.05;;
12756;SDS011;31601;48.042;12.240;2023-06-22T05:15:03;9.50;;;5.40;;
12756;SDS011;31601;48.042;12.240;2023-06-22T05:17:29;9.90;;;4.75;;
12756;SDS011;31601;48.042;12.240;2023-06-22T05:19:56;11.23;;;5.03;;
12756;SDS011;31601;48.042;12.240;2023-06-22T05:22:22;9.38;;;5.15;;
12756;SDS011;31601;48.042;12.240;2023-06-22T05:24:49;13.75;;;5.63;;
12756;SDS011;31601;48.042;12.240;2023-06-22T05:27:15;10.02;;;5.28;;
12756;SDS011;31601;48.042;12.240;2023-06-22T05:29:43;10.10;;;4.90;;
12756;SDS011;31601;48.042;12.240;2023-06-22T05:32:09;11.07;;;5.07;;
12756;SDS011;31601;48.042;12.240;2023-06-22T05:34:36;14.90;;;6.15;;
12756;SDS011;31601;48.042;12.240;2023-06-22T05:37:03;11.18;;;6.22;;
12756;SDS011;31601;48.042;12.240;2023-06-22T05:39:29;10.38;;;5.65;;
12756;SDS011;31601;48.042;12.240;2023-06-22T05:41:56;11.88;;;5.85;;
12756;SDS011;31601;48.042;12.240;2023-06-22T05:44:22;10.00;;;5.70;;
12756;SDS011;31601;48.042;12.240;2023-06-22T05:46:50;11.60;;;5.82;;
12756;SDS011;31601;48.042;12.240;2023-06-22T05:49:16;12.27;;;5.28;;
12756;SDS011;31601;48.042;12.240;2023-06-22T05:51:43;14.05;;;5.85;;
12756;SDS011;31601;48.042;12.240;2023-06-22T05:54:09;15.65;;;5.93;;
12756;SDS011;31601;48.042;12.240;2023-06-22T05:56:38;10.93;;;5.60;;
12756;SDS011;31601;48.042;12.240;2023-06-22T05:59:04;16.17;;;5.88;;
12756;SDS011;31601;48.042;12.240;2023-06-22T06:01:31;12.52;;;6.30;;
12756;SDS011;31601;48.042;12.240;2023-06-22T06:04:01;12.63;;;5.90;;
12756;SDS011;31601;48.042;12.240;2023-06-22T06:06:28;11.05;;;5.47;;
12756;SDS011;31601;48.042;12.240;2023-06-22T06:08:55;12.02;;;5.65;;
12756;SDS011;31601;48.042;12.240;2023-06-22T06:11:22;16.50;;;6.30;;
12756;SDS011;31601;48.042;12.240;2023-06-22T06:13:48;13.10;;;5.82;;
12756;SDS011;31601;48.042;12.240;2023-06-22T06:16:15;16.55;;;6.18;;
12756;SDS011;31601;48.042;12.240;2023-06-22T06:18:42;14.88;;;6.80;;
12756;SDS011;31601;48.042;12.240;2023-06-22T06:21:09;14.48;;;6.28;;
12756;SDS011;31601;48.042;12.240;2023-06-22T06:23:36;13.80;;;5.70;;
12756;SDS011;31601;48.042;12.240;2023-06-22T06:26:02;15.13;;;5.78;;
12756;SDS011;31601;48.042;12.240;2023-06-22T06:28:32;11.82;;;5.72;;
12756;SDS011;31601;48.042;12.240;2023-06-22T06:30:58;12.70;;;5.25;;
12756;SDS011;31601;48.042;12.240;2023-06-22T06:33:25;10.80;;;5.68;;
12756;SDS011;31601;48.042;12.240;2023-06-22T06:35:51;15.30;;;6.18;;
12756;SDS011;31601;48.042;12.240;2023-06-22T06:38:19;12.40;;;5.47;;
12756;SDS011;31601;48.042;12.240;2023-06-22T06:40:45;10.10;;;5.90;;
12756;SDS011;31601;48.042;12.240;2023-06-22T06:43:14;10.93;;;5.40;;
12756;SDS011;31601;48.042;12.240;2023-06-22T06:45:40;15.15;;;5.75;;
12756;SDS011;31601;48.042;12.240;2023-06-22T06:48:06;10.25;;;5.22;;
12756;SDS011;31601;48.042;12.240;2023-06-22T06:50:34;9.55;;;5.43;;
12756;SDS011;31601;48.042;12.240;2023-06-22T06:53:00;14.35;;;5.57;;
12756;SDS011;31601;48.042;12.240;2023-06-22T06:55:28;12.45;;;5.40;;
12756;SDS011;31601;48.042;12.240;2023-06-22T06:57:57;12.63;;;5.45;;
12756;SDS011;31601;48.042;12.240;2023-06-22T07:00:24;14.00;;;5.45;;
12756;SDS011;31601;48.042;12.240;2023-06-22T07:02:52;14.25;;;5.97;;
12756;SDS011;31601;48.042;12.240;2023-06-22T07:05:18;12.75;;;5.35;;
12756;SDS011;31601;48.042;12.240;2023-06-22T07:07:45;11.18;;;5.25;;
12756;SDS011;31601;48.042;12.240;2023-06-22T07:10:11;13.48;;;5.53;;
12756;SDS011;31601;48.042;12.240;2023-06-22T07:12:39;9.20;;;4.85;;
12756;SDS011;31601;48.042;12.240;2023-06-22T07:15:06;11.57;;;5.82;;
12756;SDS011;31601;48.042;12.240;2023-06-22T07:17:34;9.30;;;5.40;;
12756;SDS011;31601;48.042;12.240;2023-06-22T07:20:00;14.77;;;5.43;;
12756;SDS011;31601;48.042;12.240;2023-06-22T07:22:33;16.05;;;5.38;;
12756;SDS011;31601;48.042;12.240;2023-06-22T07:24:59;15.35;;;5.10;;
12756;SDS011;31601;48.042;12.240;2023-06-22T07:27:26;13.82;;;5.75;;
12756;SDS011;31601;48.042;12.240;2023-06-22T07:29:54;14.63;;;5.82;;
12756;SDS011;31601;48.042;12.240;2023-06-22T07:32:21;11.93;;;6.20;;
12756;SDS011;31601;48.042;12.240;2023-06-22T07:34:47;14.05;;;5.30;;
12756;SDS011;31601;48.042;12.240;2023-06-22T07:37:13;15.10;;;6.32;;
12756;SDS011;31601;48.042;12.240;2023-06-22T07:39:40;9.50;;;5.63;;
12756;SDS011;31601;48.042;12.240;2023-06-22T07:42:07;10.88;;;5.18;;
12756;SDS011;31601;48.042;12.240;2023-06-22T07:44:34;15.02;;;5.22;;
12756;SDS011;31601;48.042;12.240;2023-06-22T07:47:02;14.05;;;5.28;;
12756;SDS011;31601;48.042;12.240;2023-06-22T07:49:28;8.93;;;5.35;;
12756;SDS011;31601;48.042;12.240;2023-06-22T07:51:55;12.70;;;5.32;;
12756;SDS011;31601;48.042;12.240;2023-06-22T07:54:21;16.73;;;6.38;;
12756;SDS011;31601;48.042;12.240;2023-06-22T07:56:48;14.80;;;6.47;;
12756;SDS011;31601;48.042;12.240;2023-06-22T07:59:14;12.90;;;5.93;;
12756;SDS011;31601;48.042;12.240;2023-06-22T08:01:41;14.68;;;6.25;;
12756;SDS011;31601;48.042;12.240;2023-06-22T08:04:09;16.23;;;5.47;;
12756;SDS011;31601;48.042;12.240;2023-06-22T08:06:36;12.05;;;4.90;;
12756;SDS011;31601;48.042;12.240;2023-06-22T08:09:02;12.93;;;5.63;;
12756;SDS011;31601;48.042;12.240;2023-06-22T08:11:29;13.30;;;5.63;;
12756;SDS011;31601;48.042;12.240;2023-06-22T08:13:55;14.82;;;5.05;;
12756;SDS011;31601;48.042;12.240;2023-06-22T08:16:23;14.52;;;6.10;;
12756;SDS011;31601;48.042;12.240;2023-06-22T08:18:50;14.07;;;5.47;;
12756;SDS011;31601;48.042;12.240;2023-06-22T08:21:17;14.48;;;5.72;;
12756;SDS011;31601;48.042;12.240;2023-06-22T08:23:44;14.35;;;5.70;;
12756;SDS011;31601;48.042;12.240;2023-06-22T08:26:10;14.43;;;5.75;;
12756;SDS011;31601;48.042;12.240;2023-06-22T08:28:37;11.65;;;4.97;;
12756;SDS011;31601;48.042;12.240;2023-06-22T08:31:03;15.60;;;5.55;;
12756;SDS011;31601;48.042;12.240;2023-06-22T08:33:30;7.97;;;5.05;;
12756;SDS011;31601;48.042;12.240;2023-06-22T08:35:57;12.25;;;6.05;;
12756;SDS011;31601;48.042;12.240;2023-06-22T08:38:26;13.27;;;5.47;;
12756;SDS011;31601;48.042;12.240;2023-06-22T08:40:52;15.13;;;5.57;;
12756;SDS011;31601;48.042;12.240;2023-06-22T08:43:19;16.33;;;5.68;;
12756;SDS011;31601;48.042;12.240;2023-06-22T08:45:45;14.80;;;5.80;;
12756;SDS011;31601;48.042;12.240;2023-06-22T08:48:11;12.43;;;5.65;;
12756;SDS011;31601;48.042;12.240;2023-06-22T08:50:38;17.67;;;5.78;;
12756;SDS011;31601;48.042;12.240;2023-06-22T08:53:05;16.08;;;5.85;;
12756;SDS011;31601;48.042;12.240;2023-06-22T08:55:33;9.48;;;5.32;;
12756;SDS011;31601;48.042;12.240;2023-06-22T08:58:00;15.18;;;6.28;;
12756;SDS011;31601;48.042;12.240;2023-06-22T09:00:26;22.10;;;6.53;;
12756;SDS011;31601;48.042;12.240;2023-06-22T09:02:54;14.38;;;5.35;;
12756;SDS011;31601;48.042;12.240;2023-06-22T09:05:23;14.10;;;5.22;;
12756;SDS011;31601;48.042;12.240;2023-06-22T09:07:50;14.48;;;5.47;;
12756;SDS011;31601;48.042;12.240;2023-06-22T09:10:19;18.40;;;5.65;;
12756;SDS011;31601;48.042;12.240;2023-06-22T09:12:47;11.60;;;5.60;;
12756;SDS011;31601;48.042;12.240;2023-06-22T09:15:14;15.93;;;5.85;;
12756;SDS011;31601;48.042;12.240;2023-06-22T09:17:40;11.43;;;5.18;;
12756;SDS011;31601;48.042;12.240;2023-06-22T09:20:07;14.23;;;5.63;;
12756;SDS011;31601;48.042;12.240;2023-06-22T09:22:36;15.95;;;6.22;;
12756;SDS011;31601;48.042;12.240;2023-06-22T09:25:02;16.58;;;6.50;;
12756;SDS011;31601;48.042;12.240;2023-06-22T09:27:29;11.85;;;6.15;;
12756;SDS011;31601;48.042;12.240;2023-06-22T09:29:57;12.70;;;5.72;;
12756;SDS011;31601;48.042;12.240;2023-06-22T09:32:24;12.93;;;6.20;;
12756;SDS011;31601;48.042;12.240;2023-06-22T09:34:51;18.88;;;6.28;;
12756;SDS011;31601;48.042;12.240;2023-06-22T09:37:18;12.48;;;5.65;;
12756;SDS011;31601;48.042;12.240;2023-06-22T09:39:44;10.90;;;5.20;;
12756;SDS011;31601;48.042;12.240;2023-06-22T09:42:10;15.55;;;5.70;;
12756;SDS011;31601;48.042;12.240;2023-06-22T09:44:38;18.50;;;5.93;;
12756;SDS011;31601;48.042;12.240;2023-06-22T09:47:06;10.07;;;5.70;;
12756;SDS011;31601;48.042;12.240;2023-06-22T09:49:33;15.05;;;5.97;;
12756;SDS011;31601;48.042;12.240;2023-06-22T09:51:59;13.13;;;5.90;;
12756;SDS011;31601;48.042;12.240;2023-06-22T09:54:26;16.58;;;5.90;;
12756;SDS011;31601;48.042;12.240;2023-06-22T09:56:52;13.73;;;5.20;;
12756;SDS011;31601;48.042;12.240;2023-06-22T09:59:18;14.68;;;5.38;;
12756;SDS011;31601;48.042;12.240;2023-06-22T10:01:45;15.23;;;5.35;;
12756;SDS011;31601;48.042;12.240;2023-06-22T10:04:13;17.90;;;6.50;;
12756;SDS011;31601;48.042;12.240;2023-06-22T10:06:39;13.50;;;5.80;;
12756;SDS011;31601;48.042;12.240;2023-06-22T10:09:06;13.07;;;5.70;;
12756;SDS011;31601;48.042;12.240;2023-06-22T10:11:32;13.50;;;5.40;;
12756;SDS011;31601;48.042;12.240;2023-06-22T10:14:00;13.63;;;5.53;;
12756;SDS011;31601;48.042;12.240;2023-06-22T10:16:29;13.55;;;5.38;;
12756;SDS011;31601;48.042;12.240;2023-06-22T10:18:57;16.50;;;6.38;;
12756;SDS011;31601;48.042;12.240;2023-06-22T10:21:24;20.35;;;5.68;;
12756;SDS011;31601;48.042;12.240;2023-06-22T10:23:52;15.60;;;6.57;;
12756;SDS011;31601;48.042;12.240;2023-06-22T10:26:18;14.02;;;6.30;;
12756;SDS011;31601;48.042;12.240;2023-06-22T10:28:45;16.83;;;6.10;;
12756;SDS011;31601;48.042;12.240;2023-06-22T10:31:11;12.75;;;5.53;;
12756;SDS011;31601;48.042;12.240;2023-06-22T10:33:38;15.00;;;6.03;;
12756;SDS011;31601;48.042;12.240;2023-06-22T10:36:06;13.05;;;5.90;;
12756;SDS011;31601;48.042;12.240;2023-06-22T10:38:34;10.43;;;5.38;;
12756;SDS011;31601;48.042;12.240;2023-06-22T10:41:00;18.05;;;5.15;;
12756;SDS011;31601;48.042;12.240;2023-06-22T10:43:27;13.60;;;5.35;;
12756;SDS011;31601;48.042;12.240;2023-06-22T10:45:53;15.75;;;5.38;;
12756;SDS011;31601;48.042;12.240;2023-06-22T10:48:20;15.73;;;5.53;;
12756;SDS011;31601;48.042;12.240;2023-06-22T10:50:46;17.05;;;5.32;;
12756;SDS011;31601;48.042;12.240;2023-06-22T10:53:13;17.35;;;5.22;;
12756;SDS011;31601;48.042;12.240;2023-06-22T10:55:41;15.30;;;5.72;;
12756;SDS011;31601;48.042;12.240;2023-06-22T10:58:07;22.13;;;5.95;;
12756;SDS011;31601;48.042;12.240;2023-06-22T11:00:34;13.07;;;5.30;;
12756;SDS011;31601;48.042;12.240;2023-06-22T11:03:00;15.75;;;5.63;;
12756;SDS011;31601;48.042;12.240;2023-06-22T11:05:26;13.30;;;4.63;;
12756;SDS011;31601;48.042;12.240;2023-06-22T11:07:53;16.08;;;5.80;;
12756;SDS011;31601;48.042;12.240;2023-06-22T11:10:19;18.08;;;5.18;;
12756;SDS011;31601;48.042;12.240;2023-06-22T11:12:47;17.17;;;5.43;;
12756;SDS011;31601;48.042;12.240;2023-06-22T11:15:13;13.77;;;5.10;;
12756;SDS011;31601;48.042;12.240;2023-06-22T11:17:40;15.65;;;5.55;;
12756;SDS011;31601;48.042;12.240;2023-06-22T11:20:07;14.68;;;5.13;;
12756;SDS011;31601;48.042;12.240;2023-06-22T11:22:35;13.18;;;5.57;;
12756;SDS011;31601;48.042;12.240;2023-06-22T11:25:02;14.55;;;5.43;;
12756;SDS011;31601;48.042;12.240;2023-06-22T11:27:29;13.80;;;5.18;;
12756;SDS011;31601;48.042;12.240;2023-06-22T11:29:57;15.93;;;5.55;;
12756;SDS011;31601;48.042;12.240;2023-06-22T11:32:23;14.95;;;5.00;;
12756;SDS011;31601;48.042;12.240;2023-06-22T11:34:50;13.93;;;5.25;;
12756;SDS011;31601;48.042;12.240;2023-06-22T11:37:16;11.43;;;4.78;;
12756;SDS011;31601;48.042;12.240;2023-06-22T11:39:43;17.92;;;5.72;;
12756;SDS011;31601;48.042;12.240;2023-06-22T11:42:09;14.93;;;5.18;;
12756;SDS011;31601;48.042;12.240;2023-06-22T11:44:36;12.95;;;5.32;;
12756;SDS011;31601;48.042;12.240;2023-06-22T11:47:04;11.50;;;5.07;;
12756;SDS011;31601;48.042;12.240;2023-06-22T11:49:31;16.08;;;5.35;;
12756;SDS011;31601;48.042;12.240;2023-06-22T11:51:57;16.88;;;5.38;;
12756;SDS011;31601;48.042;12.240;2023-06-22T11:54:24;14.00;;;5.20;;
12756;SDS011;31601;48.042;12.240;2023-06-22T11:56:50;15.10;;;5.07;;
12756;SDS011;31601;48.042;12.240;2023-06-22T11:59:17;16.05;;;4.93;;
12756;SDS011;31601;48.042;12.240;2023-06-22T12:01:43;14.43;;;5.63;;
12756;SDS011;31601;48.042;12.240;2023-06-22T12:04:11;12.85;;;5.40;;
12756;SDS011;31601;48.042;12.240;2023-06-22T12:06:38;16.50;;;5.30;;
12756;SDS011;31601;48.042;12.240;2023-06-22T12:09:07;12.90;;;4.50;;
12756;SDS011;31601;48.042;12.240;2023-06-22T12:11:33;16.80;;;5.05;;
12756;SDS011;31601;48.042;12.240;2023-06-22T12:13:59;21.15;;;5.60;;
12756;SDS011;31601;48.042;12.240;2023-06-22T12:16:27;12.07;;;4.70;;
12756;SDS011;31601;48.042;12.240;2023-06-22T12:18:53;20.33;;;6.22;;
12756;SDS011;31601;48.042;12.240;2023-06-22T12:21:21;14.82;;;5.57;;
12756;SDS011;31601;48.042;12.240;2023-06-22T12:23:47;18.02;;;6.05;;
12756;SDS011;31601;48.042;12.240;2023-06-22T12:26:14;18.58;;;5.55;;
12756;SDS011;31601;48.042;12.240;2023-06-22T12:28:40;18.67;;;5.28;;
12756;SDS011;31601;48.042;12.240;2023-06-22T12:31:07;18.67;;;5.68;;
12756;SDS011;31601;48.042;12.240;2023-06-22T12:33:33;16.65;;;4.97;;
12756;SDS011;31601;48.042;12.240;2023-06-22T12:36:00;17.65;;;5.75;;
12756;SDS011;31601;48.042;12.240;2023-06-22T12:38:27;15.48;;;5.28;;
12756;SDS011;31601;48.042;12.240;2023-06-22T12:40:54;15.18;;;5.45;;
12756;SDS011;31601;48.042;12.240;2023-06-22T12:43:20;14.93;;;5.10;;
12756;SDS011;31601;48.042;12.240;2023-06-22T12:45:47;15.60;;;4.63;;
12756;SDS011;31601;48.042;12.240;2023-06-22T12:48:13;14.10;;;4.63;;
12756;SDS011;31601;48.042;12.240;2023-06-22T12:50:39;14.68;;;5.45;;
12756;SDS011;31601;48.042;12.240;2023-06-22T12:53:06;16.52;;;5.90;;
12756;SDS011;31601;48.042;12.240;2023-06-22T12:55:34;17.65;;;5.40;;
12756;SDS011;31601;48.042;12.240;2023-06-22T12:58:00;13.68;;;5.38;;
12756;SDS011;31601;48.042;12.240;2023-06-22T13:00:27;14.07;;;5.10;;
12756;SDS011;31601;48.042;12.240;2023-06-22T13:02:53;16.40;;;5.13;;
12756;SDS011;31601;48.042;12.240;2023-06-22T13:05:19;15.43;;;5.22;;
12756;SDS011;31601;48.042;12.240;2023-06-22T13:07:46;15.82;;;4.85;;
12756;SDS011;31601;48.042;12.240;2023-06-22T13:10:12;14.32;;;5.30;;
12756;SDS011;31601;48.042;12.240;2023-06-22T13:12:40;21.48;;;5.63;;
12756;SDS011;31601;48.042;12.240;2023-06-22T13:15:06;22.10;;;5.32;;
12756;SDS011;31601;48.042;12.240;2023-06-22T13:17:33;14.60;;;5.05;;
12756;SDS011;31601;48.042;12.240;2023-06-22T13:19:59;15.77;;;5.68;;
12756;SDS011;31601;48.042;12.240;2023-06-22T13:22:27;15.65;;;5.20;;
12756;SDS011;31601;48.042;12.240;2023-06-22T13:24:55;14.27;;;4.97;;
12756;SDS011;31601;48.042;12.240;2023-06-22T13:27:22;14.98;;;4.55;;
12756;SDS011;31601;48.042;12.240;2023-06-22T13:29:49;15.30;;;5.55;;
12756;SDS011;31601;48.042;12.240;2023-06-22T13:32:16;15.25;;;5.07;;
12756;SDS011;31601;48.042;12.240;2023-06-22T13:34:43;11.45;;;5.22;;
12756;SDS011;31601;48.042;12.240;2023-06-22T13:37:09;13.07;;;5.10;;
12756;SDS011;31601;48.042;12.240;2023-06-22T13:39:36;12.13;;;5.05;;
12756;SDS011;31601;48.042;12.240;2023-06-22T13:42:02;12.15;;;5.13;;
12756;SDS011;31601;48.042;12.240;2023-06-22T13:44:29;16.75;;;4.70;;
12756;SDS011;31601;48.042;12.240;2023-06-22T13:46:56;16.83;;;5.50;;
12756;SDS011;31601;48.042;12.240;2023-06-22T13:49:23;12.00;;;5.57;;
12756;SDS011;31601;48.042;12.240;2023-06-22T13:51:49;13.55;;;5.40;;
12756;SDS011;31601;48.042;12.240;2023-06-22T13:54:16;11.80;;;5.05;;
12756;SDS011;31601;48.042;12.240;2023-06-22T13:56:42;12.43;;;5.35;;
12756;SDS011;31601;48.042;12.240;2023-06-22T13:59:09;16.45;;;6.00;;
12756;SDS011;31601;48.042;12.240;2023-06-22T14:01:35;18.83;;;5.60;;
12756;SDS011;31601;48.042;12.240;2023-06-22T14:04:05;12.43;;;4.95;;
12756;SDS011;31601;48.042;12.240;2023-06-22T14:06:31;13.88;;;5.35;;
12756;SDS011;31601;48.042;12.240;2023-06-22T14:08:58;18.60;;;5.70;;
12756;SDS011;31601;48.042;12.240;2023-06-22T14:11:24;14.18;;;5.80;;
12756;SDS011;31601;48.042;12.240;2023-06-22T14:13:51;16.45;;;5.60;;
12756;SDS011;31601;48.042;12.240;2023-06-22T14:16:17;12.80;;;5.63;;
12756;SDS011;31601;48.042;12.240;2023-06-22T14:18:44;26.67;;;10.10;;
12756;SDS011;31601;48.042;12.240;2023-06-22T14:21:12;14.70;;;6.80;;
12756;SDS011;31601;48.042;12.240;2023-06-22T14:23:38;11.55;;;5.75;;